createdAt,value
2023-02-07T00:01:43.746Z,15.20
2023-02-07T00:04:12.381Z,13.73
2023-02-07T00:06:42.355Z,18.52
2023-02-07T00:09:13.356Z,15.38
2023-02-07T00:11:42.289Z,15.23
2023-02-07T00:14:13.592Z,21.15
2023-02-07T00:16:43.130Z,16.20
2023-02-07T00:19:11.923Z,20.88
2023-02-07T00:21:41.900Z,18.83
2023-02-07T00:24:10.646Z,15.70
2023-02-07T00:26:39.697Z,14.98
2023-02-07T00:29:08.307Z,20.38
2023-02-07T00:31:37.414Z,19.23
2023-02-07T00:34:08.779Z,16.33
2023-02-07T00:36:39.263Z,17.85
2023-02-07T00:39:14.459Z,20.67
2023-02-07T00:41:44.298Z,18.80
2023-02-07T00:44:13.940Z,20.85
2023-02-07T00:46:42.632Z,21.65
2023-02-07T00:49:12.795Z,23.38
2023-02-07T00:51:41.321Z,21.48
2023-02-07T00:54:11.247Z,24.95
2023-02-07T00:56:40.953Z,20.00
2023-02-07T00:59:09.711Z,21.33
2023-02-07T01:01:38.304Z,20.38
2023-02-07T01:04:07.468Z,22.65
2023-02-07T01:06:37.113Z,23.98
2023-02-07T01:09:08.108Z,18.13
2023-02-07T01:11:38.664Z,20.38
2023-02-07T01:14:07.293Z,19.48
2023-02-07T01:16:37.896Z,25.38
2023-02-07T01:19:10.020Z,19.90
2023-02-07T01:21:38.974Z,20.17
2023-02-07T01:24:08.718Z,19.55
2023-02-07T01:26:40.399Z,19.75
2023-02-07T01:29:11.015Z,21.52
2023-02-07T01:31:39.726Z,22.40
2023-02-07T01:34:08.406Z,19.05
2023-02-07T01:36:36.945Z,16.83
2023-02-07T01:39:06.499Z,19.42
2023-02-07T01:41:35.942Z,21.63
2023-02-07T01:44:09.030Z,20.45
2023-02-07T01:46:38.170Z,21.05
2023-02-07T01:49:12.790Z,21.63
2023-02-07T01:51:47.177Z,20.55
2023-02-07T01:54:19.084Z,19.60
2023-02-07T01:56:56.202Z,19.70
2023-02-07T01:59:27.884Z,22.45
2023-02-07T02:01:58.742Z,20.42
2023-02-07T02:04:28.147Z,22.23
2023-02-07T02:06:59.205Z,21.80
2023-02-07T02:09:29.480Z,20.88
2023-02-07T02:12:32.191Z,19.90
2023-02-07T02:15:23.385Z,21.90
2023-02-07T02:18:23.963Z,26.20
2023-02-07T02:21:37.265Z,22.92
2023-02-07T02:24:53.431Z,19.70
2023-02-07T02:27:46.791Z,23.17
2023-02-07T02:30:47.713Z,21.52
2023-02-07T02:33:36.526Z,21.67
2023-02-07T02:36:14.692Z,24.00
2023-02-07T02:38:52.208Z,17.90
2023-02-07T02:41:29.402Z,20.23
2023-02-07T02:44:05.290Z,19.73
2023-02-07T02:46:38.454Z,22.38
2023-02-07T02:49:14.239Z,19.13
2023-02-07T02:51:43.007Z,18.67
2023-02-07T02:54:32.106Z,22.45
2023-02-07T02:57:53.453Z,19.15
2023-02-07T03:00:49.011Z,21.02
2023-02-07T03:03:56.689Z,20.25
2023-02-07T03:06:47.664Z,21.63
2023-02-07T03:09:33.626Z,18.92
2023-02-07T03:12:16.332Z,18.92
2023-02-07T03:14:59.800Z,24.08
2023-02-07T03:17:35.949Z,20.27
2023-02-07T03:20:15.634Z,18.75
2023-02-07T03:22:48.500Z,20.42
2023-02-07T03:25:19.744Z,21.92
2023-02-07T03:27:50.724Z,19.55
2023-02-07T03:30:22.652Z,22.63
2023-02-07T03:32:57.521Z,20.42
2023-02-07T03:35:31.978Z,20.73
2023-02-07T03:38:05.110Z,30.60
2023-02-07T03:40:42.449Z,20.33
2023-02-07T03:43:16.177Z,19.00
2023-02-07T03:45:44.941Z,23.80
2023-02-07T03:48:13.750Z,26.27
2023-02-07T03:50:42.304Z,21.10
2023-02-07T03:53:12.420Z,19.73
2023-02-07T03:55:41.193Z,21.90
2023-02-07T03:58:09.835Z,18.50
2023-02-07T04:00:39.040Z,19.73
2023-02-07T04:03:07.665Z,23.88
2023-02-07T04:05:36.851Z,23.95
2023-02-07T04:08:05.947Z,21.38
2023-02-07T04:10:35.812Z,16.10
2023-02-07T04:13:04.556Z,21.48
2023-02-07T04:15:33.216Z,19.90
2023-02-07T04:18:02.062Z,20.48
2023-02-07T04:20:30.548Z,22.98
2023-02-07T04:22:59.046Z,21.65
2023-02-07T04:25:27.569Z,21.33
2023-02-07T04:27:57.600Z,22.27
2023-02-07T04:30:26.369Z,19.45
2023-02-07T04:32:54.923Z,18.38
2023-02-07T04:35:23.563Z,17.67
2023-02-07T04:37:52.048Z,28.45
2023-02-07T04:40:20.703Z,25.10
2023-02-07T04:42:49.381Z,22.02
2023-02-07T04:45:19.213Z,19.90
2023-02-07T04:47:47.716Z,22.77
2023-02-07T04:50:16.584Z,21.52
2023-02-07T04:52:45.090Z,24.38
2023-02-07T04:55:13.600Z,21.10
2023-02-07T04:57:42.131Z,18.00
2023-02-07T05:00:12.508Z,17.30
2023-02-07T05:02:44.286Z,22.70
2023-02-07T05:05:12.967Z,24.58
2023-02-07T05:07:41.500Z,19.80
2023-02-07T05:10:10.553Z,24.50
2023-02-07T05:12:39.157Z,22.20
2023-02-07T05:15:08.517Z,21.73
2023-02-07T05:17:38.645Z,18.85
2023-02-07T05:20:10.702Z,24.35
2023-02-07T05:22:39.346Z,24.48
2023-02-07T05:25:08.676Z,22.52
2023-02-07T05:27:37.320Z,19.77
2023-02-07T05:30:07.119Z,22.25
2023-02-07T05:32:55.680Z,20.65
2023-02-07T05:35:26.271Z,28.83
2023-02-07T05:37:54.810Z,23.73
2023-02-07T05:40:25.879Z,19.70
2023-02-07T05:42:54.765Z,27.25
2023-02-07T05:45:23.678Z,21.50
2023-02-07T05:47:52.309Z,18.80
2023-02-07T05:50:21.370Z,19.52
2023-02-07T05:52:51.604Z,24.13
2023-02-07T05:55:20.739Z,25.48
2023-02-07T05:57:49.726Z,23.92
2023-02-07T06:00:21.537Z,23.23
2023-02-07T06:02:50.496Z,21.38
2023-02-07T06:05:21.491Z,24.10
2023-02-07T06:07:52.836Z,20.50
2023-02-07T06:10:21.939Z,19.45
2023-02-07T06:12:50.440Z,24.45
2023-02-07T06:15:19.250Z,28.52
2023-02-07T06:17:48.677Z,37.17
2023-02-07T06:20:18.087Z,35.90
2023-02-07T06:22:46.925Z,31.48
2023-02-07T06:25:18.013Z,26.23
2023-02-07T06:27:47.321Z,24.02
2023-02-07T06:30:16.122Z,23.08
2023-02-07T06:32:44.802Z,20.98
2023-02-07T06:35:13.266Z,20.80
2023-02-07T06:37:42.256Z,20.90
2023-02-07T06:40:11.953Z,24.27
2023-02-07T06:42:41.884Z,19.90
2023-02-07T06:45:11.427Z,22.42
2023-02-07T06:47:40.017Z,19.08
2023-02-07T06:50:09.346Z,19.77
2023-02-07T06:52:37.886Z,19.48
2023-02-07T06:55:07.127Z,16.00
2023-02-07T06:57:35.780Z,21.15
2023-02-07T07:00:07.872Z,19.63
2023-02-07T07:02:36.472Z,20.73
2023-02-07T07:05:07.891Z,17.58
2023-02-07T07:07:36.571Z,19.35
2023-02-07T07:10:06.145Z,17.02
2023-02-07T07:12:34.778Z,22.67
2023-02-07T07:15:03.347Z,23.02
2023-02-07T07:17:33.490Z,21.27
2023-02-07T07:20:02.038Z,22.08
2023-02-07T07:22:30.769Z,30.35
2023-02-07T07:24:59.380Z,19.92
2023-02-07T07:27:28.185Z,27.23
2023-02-07T07:29:56.780Z,23.90
2023-02-07T07:32:34.000Z,21.25
2023-02-07T07:35:05.874Z,20.95
2023-02-07T07:37:35.079Z,25.83
2023-02-07T07:40:06.014Z,24.17
2023-02-07T07:42:35.466Z,24.40
2023-02-07T07:45:16.882Z,23.67
2023-02-07T07:47:45.481Z,23.98
2023-02-07T07:50:15.832Z,20.48
2023-02-07T07:52:44.529Z,20.48
2023-02-07T07:55:13.169Z,21.40
2023-02-07T07:57:41.775Z,32.28
2023-02-07T08:00:13.146Z,30.17
2023-02-07T08:02:42.558Z,23.17
2023-02-07T08:05:13.682Z,25.80
2023-02-07T08:07:43.953Z,34.03
2023-02-07T08:10:12.913Z,27.80
2023-02-07T08:12:43.877Z,23.73
2023-02-07T08:15:13.943Z,25.60
2023-02-07T08:17:42.500Z,26.38
2023-02-07T08:20:12.706Z,23.35
2023-02-07T08:22:42.936Z,25.42
2023-02-07T08:25:11.610Z,23.85
2023-02-07T08:27:40.340Z,21.33
2023-02-07T08:30:14.281Z,30.63
2023-02-07T08:32:43.652Z,26.38
2023-02-07T08:35:12.478Z,26.13
2023-02-07T08:37:41.036Z,23.30
2023-02-07T08:40:14.329Z,28.88
2023-02-07T08:42:42.995Z,29.75
2023-02-07T08:45:11.771Z,24.10
2023-02-07T08:47:40.367Z,27.30
2023-02-07T08:50:10.795Z,24.02
2023-02-07T08:52:39.365Z,22.42
2023-02-07T08:55:10.412Z,23.38
2023-02-07T08:57:39.381Z,25.02
2023-02-07T09:00:10.301Z,25.25
2023-02-07T09:02:38.919Z,31.67
2023-02-07T09:05:08.842Z,23.65
2023-02-07T09:07:37.670Z,24.15
2023-02-07T09:10:09.386Z,23.20
2023-02-07T09:12:39.569Z,24.60
2023-02-07T09:15:09.262Z,20.40
2023-02-07T09:17:37.850Z,22.42
2023-02-07T09:20:07.223Z,25.65
2023-02-07T09:22:56.002Z,39.17
2023-02-07T09:25:25.076Z,22.73
2023-02-07T09:27:55.824Z,20.30
2023-02-07T09:30:24.434Z,21.23
2023-02-07T09:32:53.226Z,29.23
2023-02-07T09:35:21.753Z,20.67
2023-02-07T09:37:50.363Z,21.73
2023-02-07T09:40:20.685Z,25.17
2023-02-07T09:42:58.774Z,24.98
2023-02-07T09:45:35.693Z,23.75
2023-02-07T09:48:13.112Z,21.15
2023-02-07T09:50:51.783Z,22.42
2023-02-07T09:53:28.135Z,25.25
2023-02-07T09:56:02.651Z,22.00
2023-02-07T09:58:43.597Z,21.92
2023-02-07T10:01:18.469Z,20.08
2023-02-07T10:04:01.046Z,19.63
2023-02-07T10:06:30.088Z,23.60
2023-02-07T10:09:02.170Z,22.73
2023-02-07T10:11:46.473Z,19.65
2023-02-07T10:14:34.346Z,18.45
2023-02-07T10:17:32.467Z,20.77
2023-02-07T10:20:24.981Z,20.15
2023-02-07T10:23:11.359Z,22.63
2023-02-07T10:25:53.171Z,20.13
2023-02-07T10:28:54.848Z,20.27
2023-02-07T10:31:27.624Z,20.35
2023-02-07T10:34:02.337Z,19.33
2023-02-07T10:36:35.013Z,21.17
2023-02-07T10:39:15.384Z,28.63
2023-02-07T10:41:45.270Z,22.52
2023-02-07T10:44:18.487Z,22.00
2023-02-07T10:46:55.769Z,19.33
2023-02-07T10:49:28.890Z,19.77
2023-02-07T10:52:02.590Z,21.85
2023-02-07T10:54:31.294Z,18.48
2023-02-07T10:57:03.880Z,19.02
2023-02-07T10:59:45.886Z,20.27
2023-02-07T11:02:44.755Z,18.13
2023-02-07T11:05:41.925Z,20.52
2023-02-07T11:08:24.767Z,20.60
2023-02-07T11:10:56.059Z,24.35
2023-02-07T11:13:29.435Z,20.13
2023-02-07T11:16:04.557Z,25.67
2023-02-07T11:18:45.487Z,19.75
2023-02-07T11:21:30.300Z,20.98
2023-02-07T11:24:07.485Z,19.03
2023-02-07T11:26:41.632Z,29.00
2023-02-07T11:29:20.410Z,21.90
2023-02-07T11:31:53.222Z,22.20
2023-02-07T11:34:49.697Z,20.73
2023-02-07T11:37:29.053Z,22.83
2023-02-07T11:40:21.516Z,21.20
2023-02-07T11:42:58.005Z,19.87
2023-02-07T11:45:28.280Z,20.53
2023-02-07T11:47:59.949Z,19.20
2023-02-07T11:50:37.196Z,22.10
2023-02-07T11:53:06.933Z,23.20
2023-02-07T11:55:40.811Z,22.23
2023-02-07T11:58:18.682Z,23.67
2023-02-07T12:00:49.404Z,20.80
2023-02-07T12:03:24.806Z,18.90
2023-02-07T12:06:02.434Z,27.87
2023-02-07T12:08:36.508Z,23.20
2023-02-07T12:11:16.489Z,22.17
2023-02-07T12:13:51.391Z,26.37
2023-02-07T12:16:27.646Z,20.17
2023-02-07T12:19:04.772Z,23.17
2023-02-07T12:21:48.286Z,21.20
2023-02-07T12:24:24.946Z,18.33
2023-02-07T12:27:02.633Z,20.40
2023-02-07T12:29:50.908Z,19.40
2023-02-07T12:32:32.748Z,20.40
2023-02-07T12:35:16.370Z,21.90
2023-02-07T12:38:00.361Z,23.90
2023-02-07T12:40:39.966Z,21.83
2023-02-07T12:43:18.165Z,23.43
2023-02-07T12:46:15.189Z,19.83
2023-02-07T12:49:09.157Z,20.40
2023-02-07T12:51:53.874Z,19.40
2023-02-07T12:54:42.998Z,19.13
2023-02-07T12:57:23.642Z,18.50
2023-02-07T13:00:08.305Z,19.63
2023-02-07T13:03:02.828Z,18.77
2023-02-07T13:06:05.392Z,18.60
2023-02-07T13:08:49.802Z,20.30
2023-02-07T13:11:37.184Z,21.60
2023-02-07T13:14:27.966Z,21.50
2023-02-07T13:17:15.982Z,19.07
2023-02-07T13:19:54.996Z,20.40
2023-02-07T13:22:36.491Z,17.50
2023-02-07T13:25:13.830Z,15.93
2023-02-07T13:27:45.507Z,19.03
2023-02-07T13:30:18.012Z,20.73
2023-02-07T13:32:48.823Z,19.73
2023-02-07T13:35:23.035Z,18.60
2023-02-07T13:38:03.268Z,23.50
2023-02-07T13:40:43.761Z,22.03
2023-02-07T13:43:26.141Z,21.03
2023-02-07T13:46:08.952Z,17.80
2023-02-07T13:48:48.971Z,16.57
2023-02-07T13:51:27.086Z,18.70
2023-02-07T13:54:14.591Z,17.83
2023-02-07T13:57:15.915Z,20.17
2023-02-07T14:00:08.414Z,17.70
2023-02-07T14:02:48.438Z,14.70
2023-02-07T14:05:26.758Z,16.50
2023-02-07T14:08:02.086Z,15.40
2023-02-07T14:10:48.107Z,15.37
2023-02-07T14:13:41.886Z,17.07
2023-02-07T14:16:14.263Z,12.90
2023-02-07T14:18:49.910Z,15.80
2023-02-07T14:21:40.952Z,17.67
2023-02-07T14:24:33.055Z,15.67
2023-02-07T14:27:05.138Z,16.40
2023-02-07T14:30:20.547Z,16.40
2023-02-07T14:33:15.746Z,15.83
2023-02-07T14:36:18.956Z,18.50
2023-02-07T14:39:07.047Z,15.13
2023-02-07T14:41:40.006Z,11.00
2023-02-07T14:44:24.252Z,11.43
2023-02-07T14:46:58.937Z,14.10
2023-02-07T14:49:37.916Z,13.33
2023-02-07T14:52:12.238Z,13.80
2023-02-07T14:54:48.747Z,12.73
2023-02-07T14:57:34.689Z,13.10
2023-02-07T15:00:16.925Z,11.87
2023-02-07T15:02:54.834Z,11.83
2023-02-07T15:05:29.272Z,10.37
2023-02-07T15:08:16.412Z,13.20
2023-02-07T15:10:54.594Z,11.17
2023-02-07T15:13:29.497Z,9.90
2023-02-07T15:16:02.603Z,12.00
2023-02-07T15:18:37.315Z,12.83
2023-02-07T15:21:13.300Z,11.43
2023-02-07T15:23:41.856Z,13.07
2023-02-07T15:26:11.606Z,14.47
2023-02-07T15:28:40.339Z,15.87
2023-02-07T15:31:17.465Z,12.00
2023-02-07T15:33:55.825Z,12.03
2023-02-07T15:36:33.793Z,11.93
2023-02-07T15:39:05.947Z,23.53
2023-02-07T15:41:35.123Z,27.47
2023-02-07T15:44:06.179Z,17.13
2023-02-07T15:46:50.123Z,22.20
2023-02-07T15:49:34.653Z,19.70
2023-02-07T15:52:15.557Z,22.00
2023-02-07T15:54:48.903Z,17.27
2023-02-07T15:57:25.311Z,26.10
2023-02-07T15:59:56.531Z,19.43
2023-02-07T16:02:31.714Z,17.27
2023-02-07T16:05:08.406Z,19.43
2023-02-07T16:07:39.799Z,23.37
2023-02-07T16:10:36.292Z,28.80
2023-02-07T16:13:18.087Z,21.80
2023-02-07T16:15:57.174Z,19.10
2023-02-07T16:18:38.656Z,24.67
2023-02-07T16:21:14.535Z,26.95
2023-02-07T16:23:45.858Z,26.63
2023-02-07T16:26:18.264Z,29.27
2023-02-07T16:28:48.100Z,27.85
2023-02-07T16:31:16.962Z,31.98
2023-02-07T16:33:46.048Z,23.30
2023-02-07T16:36:18.206Z,20.83
2023-02-07T16:38:48.471Z,20.25
2023-02-07T16:41:31.215Z,25.50
2023-02-07T16:44:02.394Z,24.77
2023-02-07T16:46:31.182Z,33.63
2023-02-07T16:48:59.794Z,28.27
2023-02-07T16:51:28.644Z,40.72
2023-02-07T16:53:58.674Z,42.65
2023-02-07T16:56:29.498Z,52.70
2023-02-07T16:58:58.118Z,41.28
2023-02-07T17:01:26.909Z,31.08
2023-02-07T17:03:55.729Z,27.67
2023-02-07T17:06:25.642Z,21.30
2023-02-07T17:08:56.538Z,25.00
2023-02-07T17:11:27.330Z,20.65
2023-02-07T17:13:57.842Z,25.50
2023-02-07T17:16:28.741Z,40.33
2023-02-07T17:18:57.373Z,29.10
2023-02-07T17:21:26.026Z,27.23
2023-02-07T17:23:54.662Z,32.65
2023-02-07T17:26:31.185Z,32.42
2023-02-07T17:29:00.031Z,26.98
2023-02-07T17:31:29.014Z,33.25
2023-02-07T17:33:57.756Z,38.53
2023-02-07T17:36:28.922Z,31.58
2023-02-07T17:38:58.942Z,34.85
2023-02-07T17:41:29.307Z,34.78
2023-02-07T17:43:57.965Z,41.83
2023-02-07T17:46:28.858Z,37.25
2023-02-07T17:48:57.458Z,31.38
2023-02-07T17:51:28.695Z,28.80
2023-02-07T17:53:58.181Z,31.85
2023-02-07T17:56:31.994Z,29.48
2023-02-07T17:59:03.788Z,33.47
2023-02-07T18:01:33.541Z,28.02
2023-02-07T18:04:03.106Z,35.88
2023-02-07T18:06:32.531Z,30.30
2023-02-07T18:09:01.305Z,29.80
2023-02-07T18:11:31.257Z,35.50
2023-02-07T18:14:01.857Z,32.08
2023-02-07T18:16:30.629Z,28.52
2023-02-07T18:18:59.313Z,27.08
2023-02-07T18:21:28.834Z,32.30
2023-02-07T18:23:58.171Z,30.08
2023-02-07T18:26:26.689Z,24.80
2023-02-07T18:28:56.527Z,27.50
2023-02-07T18:31:26.566Z,25.95
2023-02-07T18:33:55.885Z,26.35
2023-02-07T18:36:26.780Z,30.92
2023-02-07T18:38:58.206Z,24.40
2023-02-07T18:41:26.998Z,22.75
2023-02-07T18:43:57.156Z,27.67
2023-02-07T18:46:25.946Z,19.10
2023-02-07T18:48:56.617Z,22.70
2023-02-07T18:51:26.411Z,19.88
2023-02-07T18:53:55.834Z,21.67
2023-02-07T18:56:27.447Z,27.33
2023-02-07T18:58:57.737Z,29.65
2023-02-07T19:01:30.492Z,28.70
2023-02-07T19:04:01.568Z,24.58
2023-02-07T19:06:34.058Z,23.33
2023-02-07T19:09:02.655Z,21.60
2023-02-07T19:11:31.380Z,21.15
2023-02-07T19:14:01.363Z,24.00
2023-02-07T19:16:30.201Z,21.73
2023-02-07T19:19:01.965Z,26.00
2023-02-07T19:21:32.557Z,25.00
2023-02-07T19:24:05.980Z,24.70
2023-02-07T19:26:35.446Z,22.65
2023-02-07T19:29:06.093Z,27.48
2023-02-07T19:31:37.281Z,24.45
2023-02-07T19:34:06.308Z,23.15
2023-02-07T19:36:34.845Z,25.48
2023-02-07T19:39:03.714Z,22.20
2023-02-07T19:41:32.520Z,20.45
2023-02-07T19:44:01.683Z,25.15
2023-02-07T19:46:31.844Z,23.77
2023-02-07T19:49:00.810Z,24.05
2023-02-07T19:51:32.003Z,25.67
2023-02-07T19:54:01.476Z,22.48
2023-02-07T19:56:33.354Z,29.15
2023-02-07T19:59:05.057Z,25.65
2023-02-07T20:01:38.154Z,23.15
2023-02-07T20:04:07.458Z,23.63
2023-02-07T20:06:37.557Z,23.27
2023-02-07T20:09:08.611Z,24.85
2023-02-07T20:11:37.305Z,23.35
2023-02-07T20:14:06.919Z,33.58
2023-02-07T20:16:39.874Z,30.35
2023-02-07T20:19:09.283Z,26.95
2023-02-07T20:21:38.488Z,25.75
2023-02-07T20:24:08.568Z,26.40
2023-02-07T20:26:42.518Z,23.60
2023-02-07T20:29:16.598Z,24.67
2023-02-07T20:31:48.794Z,23.40
2023-02-07T20:34:17.909Z,23.20
2023-02-07T20:36:46.572Z,20.35
2023-02-07T20:39:18.189Z,21.08
2023-02-07T20:41:47.361Z,21.30
2023-02-07T20:44:18.936Z,24.63
2023-02-07T20:46:50.975Z,22.55
2023-02-07T20:49:24.595Z,24.35
2023-02-07T20:51:55.801Z,22.77
2023-02-07T20:54:27.930Z,26.88
2023-02-07T20:56:57.660Z,22.48
2023-02-07T20:59:28.713Z,23.60
2023-02-07T21:01:58.705Z,26.27
2023-02-07T21:04:28.961Z,28.38
2023-02-07T21:06:57.680Z,28.30
2023-02-07T21:09:26.531Z,22.63
2023-02-07T21:11:56.046Z,26.50
2023-02-07T21:14:27.615Z,22.83
2023-02-07T21:17:01.413Z,21.55
2023-02-07T21:19:33.712Z,28.38
2023-02-07T21:22:02.486Z,24.85
2023-02-07T21:24:31.082Z,20.80
2023-02-07T21:27:00.311Z,32.00
2023-02-07T21:29:29.114Z,22.58
2023-02-07T21:31:59.091Z,24.38
2023-02-07T21:34:27.718Z,26.63
2023-02-07T21:36:56.466Z,31.13
2023-02-07T21:39:25.315Z,27.33
2023-02-07T21:41:54.374Z,22.35
2023-02-07T21:44:22.889Z,19.52
2023-02-07T21:46:52.346Z,16.95
2023-02-07T21:49:22.546Z,17.95
2023-02-07T21:51:53.789Z,23.35
2023-02-07T21:54:22.606Z,23.58
2023-02-07T21:56:52.139Z,20.85
2023-02-07T21:59:22.832Z,25.00
2023-02-07T22:01:51.766Z,19.73
2023-02-07T22:04:22.218Z,19.30
2023-02-07T22:06:50.829Z,18.92
2023-02-07T22:09:22.648Z,16.35
2023-02-07T22:11:51.831Z,19.52
2023-02-07T22:14:21.348Z,16.30
2023-02-07T22:16:52.600Z,19.98
2023-02-07T22:19:23.634Z,21.40
2023-02-07T22:21:52.788Z,19.63
2023-02-07T22:24:22.038Z,18.95
2023-02-07T22:26:50.762Z,18.23
2023-02-07T22:29:19.445Z,16.80
2023-02-07T22:31:48.328Z,17.25
2023-02-07T22:34:17.340Z,15.57
2023-02-07T22:36:47.470Z,15.80
2023-02-07T22:39:19.270Z,19.52
2023-02-07T22:41:48.123Z,19.00
2023-02-07T22:44:16.782Z,17.90
2023-02-07T22:46:45.376Z,16.25
2023-02-07T22:49:14.548Z,17.30
2023-02-07T22:51:43.259Z,18.70
2023-02-07T22:54:19.020Z,20.88
2023-02-07T22:56:47.694Z,19.90
2023-02-07T22:59:16.673Z,24.58
2023-02-07T23:01:46.569Z,18.23
2023-02-07T23:04:17.860Z,17.77
2023-02-07T23:06:47.175Z,22.95
2023-02-07T23:09:17.499Z,22.85
2023-02-07T23:11:46.499Z,24.58
2023-02-07T23:14:16.492Z,20.48
2023-02-07T23:16:45.696Z,22.27
2023-02-07T23:19:17.018Z,25.05
2023-02-07T23:21:46.292Z,21.48
2023-02-07T23:24:16.674Z,19.88
2023-02-07T23:26:46.250Z,18.42
2023-02-07T23:29:14.894Z,22.52
2023-02-07T23:31:43.569Z,24.77
2023-02-07T23:34:12.215Z,20.25
2023-02-07T23:36:41.042Z,23.52
2023-02-07T23:39:10.134Z,20.33
2023-02-07T23:41:41.197Z,24.25
2023-02-07T23:44:09.695Z,19.75
2023-02-07T23:46:39.619Z,18.30
2023-02-07T23:49:08.215Z,20.85
2023-02-07T23:51:37.364Z,19.80
2023-02-07T23:54:06.064Z,22.63
2023-02-07T23:56:34.964Z,20.20
2023-02-07T23:59:05.182Z,25.88
